Time;durP1;ratioP1;P1;durP2;ratioP2;P2;SDS_P1;SDS_P2;PMS_P1;PMS_P2;Temp;Humidity;BMP_temperature;BMP_pressure;BME280_temperature;BME280_humidity;BME280_pressure;Samples;Min_cycle;Max_cycle;Signal;HPM_P1;HPM_P2
2023/08/14 00:01:11;;;;;;;31.23;22.02;;;;;;;26.42;41.69;98549.69;5051985;28;20510;-46
2023/08/14 00:03:36;;;;;;;110.40;65.93;;;;;;;26.41;41.49;98542.72;5051987;28;20435;-46
2023/08/14 00:06:02;;;;;;;30.92;21.45;;;;;;;26.47;41.45;98549.56;5033970;28;20056;-46
2023/08/14 00:08:28;;;;;;;136.32;80.22;;;;;;;26.45;41.52;98547.19;5034126;28;20116;-46
2023/08/14 00:10:54;;;;;;;195.48;110.07;;;;;;;26.45;41.99;98546.41;5034179;28;20031;-46
2023/08/14 00:13:21;;;;;;;176.30;105.63;;;;;;;26.47;41.68;98544.19;5030419;28;20046;-46
2023/08/14 00:15:48;;;;;;;62.75;46.20;;;;;;;26.50;41.53;98544.38;5031822;28;20037;-46
2023/08/14 00:18:14;;;;;;;46.35;32.13;;;;;;;26.60;41.16;98547.91;5030570;28;20094;-45
2023/08/14 00:20:39;;;;;;;155.30;101.38;;;;;;;26.52;41.43;98535.97;5029658;28;20033;-46
2023/08/14 00:23:05;;;;;;;101.50;73.55;;;;;;;26.48;41.86;98535.00;5030784;28;20033;-46
2023/08/14 00:25:31;;;;;;;135.75;85.07;;;;;;;26.43;41.85;98544.00;5031701;28;20037;-46
2023/08/14 00:27:56;;;;;;;251.80;152.23;;;;;;;26.38;41.60;98549.53;5030355;28;20034;-46
2023/08/14 00:30:22;;;;;;;91.63;72.22;;;;;;;26.24;41.87;98538.84;5031726;28;20033;-46
2023/08/14 00:32:48;;;;;;;172.77;111.68;;;;;;;26.15;42.54;98537.97;5030404;28;20033;-46
2023/08/14 00:35:14;;;;;;;57.47;39.85;;;;;;;26.23;42.10;98536.47;5031645;28;20028;-46
2023/08/14 00:37:42;;;;;;;278.75;185.38;;;;;;;26.29;42.35;98537.91;5031722;28;20030;-46
2023/08/14 00:40:10;;;;;;;248.82;178.13;;;;;;;26.40;42.20;98522.28;5031565;28;20155;-46
2023/08/14 00:42:38;;;;;;;143.85;107.32;;;;;;;26.55;41.83;98529.19;5031599;28;20021;-46
2023/08/14 00:45:08;;;;;;;120.65;80.32;;;;;;;26.54;41.94;98533.78;5031594;28;20021;-46
2023/08/14 00:47:37;;;;;;;335.67;221.23;;;;;;;26.49;42.21;98523.94;5031426;28;20025;-46
2023/08/14 00:50:10;;;;;;;141.07;98.60;;;;;;;26.51;42.41;98532.50;5030243;28;20076;-46
2023/08/14 00:52:41;;;;;;;33.17;22.77;;;;;;;26.45;42.47;98514.88;5030396;28;20025;-46
2023/08/14 00:55:13;;;;;;;13.43;7.90;;;;;;;26.34;43.04;98527.03;5031564;28;20032;-46
2023/08/14 00:57:39;;;;;;;19.60;12.82;;;;;;;26.29;43.40;98535.22;5030199;28;20033;-46
2023/08/14 01:00:07;;;;;;;16.83;9.63;;;;;;;26.27;43.57;98529.34;5031441;28;20017;-46
2023/08/14 01:02:34;;;;;;;23.05;19.60;;;;;;;26.25;43.83;98521.59;5031700;28;20037;-46
2023/08/14 01:05:00;;;;;;;8.70;6.13;;;;;;;26.34;43.68;98523.53;5031445;28;20017;-46
2023/08/14 01:07:26;;;;;;;87.00;74.63;;;;;;;26.31;43.92;98522.25;5031301;28;20065;-46
2023/08/14 01:09:52;;;;;;;7.13;4.45;;;;;;;26.46;43.44;98510.28;5031416;28;20049;-46
2023/08/14 01:12:42;;;;;;;9.20;6.00;;;;;;;26.50;43.64;98519.34;5029991;28;20049;-46
2023/08/14 01:15:50;;;;;;;14.15;12.65;;;;;;;26.49;44.08;98523.94;5031411;28;20041;-46
2023/08/14 01:18:17;;;;;;;14.75;9.52;;;;;;;26.58;44.31;98521.34;4970324;28;20401;-46
2023/08/14 01:20:53;;;;;;;8.77;4.65;;;;;;;26.45;44.40;98520.28;4938171;28;20030;-46
2023/08/14 01:23:38;;;;;;;21.88;16.58;;;;;;;26.41;44.90;98526.59;4970372;28;20062;-46
2023/08/14 01:26:05;;;;;;;6.85;5.38;;;;;;;26.38;44.65;98519.13;4970352;28;20089;-46
2023/08/14 01:28:31;;;;;;;9.32;3.50;;;;;;;26.27;44.48;98523.97;4970053;28;20041;-47
2023/08/14 01:30:57;;;;;;;5.65;3.13;;;;;;;26.10;44.94;98530.84;4970266;28;20023;-46
2023/08/14 01:33:22;;;;;;;16.77;15.07;;;;;;;26.02;45.45;98518.13;4957257;28;20406;-47
2023/08/14 01:35:59;;;;;;;5.80;4.05;;;;;;;26.11;44.77;98516.28;4973677;28;20035;-46
2023/08/14 01:39:09;;;;;;;5.93;3.47;;;;;;;26.15;44.73;98516.47;4957520;28;20041;-47
2023/08/14 01:41:39;;;;;;;7.13;4.82;;;;;;;26.29;44.44;98519.88;4957364;28;20031;-46
2023/08/14 01:44:08;;;;;;;31.98;23.13;;;;;;;26.29;44.07;98519.88;4957399;28;20062;-46
2023/08/14 01:46:35;;;;;;;7.15;4.72;;;;;;;26.23;44.59;98513.03;4973468;28;20105;-46
2023/08/14 01:49:02;;;;;;;5.85;5.30;;;;;;;26.23;44.47;98531.06;5005332;28;20569;-46
2023/08/14 01:51:29;;;;;;;5.65;3.35;;;;;;;26.11;44.58;98515.50;5034488;28;20040;-46
2023/08/14 01:53:55;;;;;;;8.68;6.60;;;;;;;26.01;44.66;98526.50;5033122;28;20025;-46
2023/08/14 01:56:21;;;;;;;6.43;3.90;;;;;;;25.84;44.90;98527.16;5034364;28;20025;-46
2023/08/14 01:58:46;;;;;;;5.40;3.17;;;;;;;25.74;45.11;98522.00;5034464;28;20399;-46
2023/08/14 02:01:12;;;;;;;9.05;4.10;;;;;;;25.67;45.72;98528.56;5033033;28;20483;-46
2023/08/14 02:03:38;;;;;;;7.38;2.80;;;;;;;25.62;45.57;98526.03;5033151;28;20388;-46
2023/08/14 02:06:04;;;;;;;7.00;3.75;;;;;;;25.54;45.90;98518.69;5034338;28;20036;-46
2023/08/14 02:08:29;;;;;;;26.17;23.80;;;;;;;25.53;46.25;98522.44;5034210;28;20075;-46
2023/08/14 02:10:55;;;;;;;8.02;6.05;;;;;;;25.56;46.15;98516.50;5034189;28;20424;-46
2023/08/14 02:13:21;;;;;;;21.13;19.05;;;;;;;25.45;46.56;98523.16;5048583;28;20041;-46
2023/08/14 02:15:47;;;;;;;18.55;16.13;;;;;;;25.36;46.89;98519.63;5053994;28;20036;-46
2023/08/14 02:18:13;;;;;;;10.23;8.95;;;;;;;25.37;46.80;98527.38;5053951;28;20033;-46
2023/08/14 02:20:49;;;;;;;116.35;99.95;;;;;;;25.36;47.05;98519.63;5035946;28;20025;-46
2023/08/14 02:23:15;;;;;;;19.05;16.50;;;;;;;25.38;47.21;98517.44;5053690;28;20025;-46
2023/08/14 02:25:41;;;;;;;9.95;8.90;;;;;;;25.35;47.08;98513.44;5053731;28;20029;-46
2023/08/14 02:28:08;;;;;;;15.20;12.43;;;;;;;25.26;47.89;98509.88;5035749;28;20021;-46
2023/08/14 02:30:43;;;;;;;62.05;55.33;;;;;;;25.29;47.87;98506.59;5035883;28;20025;-46
2023/08/14 02:33:09;;;;;;;17.70;15.10;;;;;;;25.35;47.60;98513.44;5053629;28;20047;-47
2023/08/14 02:35:35;;;;;;;31.30;26.23;;;;;;;25.37;47.86;98513.13;5035604;28;20549;-46
2023/08/14 02:38:05;;;;;;;79.53;70.57;;;;;;;25.40;47.84;98507.19;5053600;28;20074;-46
2023/08/14 02:40:31;;;;;;;8.93;7.25;;;;;;;25.34;47.88;98509.19;5053408;28;20565;-46
2023/08/14 02:43:00;;;;;;;25.08;21.75;;;;;;;25.25;48.47;98517.16;5052822;28;20017;-46
2023/08/14 02:45:25;;;;;;;12.88;10.65;;;;;;;25.29;48.30;98507.41;5053179;28;20017;-46
2023/08/14 02:47:51;;;;;;;14.80;11.80;;;;;;;25.21;48.76;98508.13;5053289;28;20060;-46
2023/08/14 02:50:17;;;;;;;34.50;29.15;;;;;;;25.10;49.18;98504.00;5053288;28;20048;-46
2023/08/14 02:52:43;;;;;;;35.58;30.08;;;;;;;25.07;49.65;98505.41;5035659;28;20360;-46
2023/08/14 02:55:08;;;;;;;48.08;41.92;;;;;;;25.02;49.62;98496.66;5053190;28;20075;-46
2023/08/14 02:57:34;;;;;;;57.78;48.30;;;;;;;24.88;50.30;98494.00;5053077;28;20060;-46
2023/08/14 03:00:00;;;;;;;26.05;15.82;;;;;;;24.87;50.38;98495.06;5035129;28;20021;-46
2023/08/14 03:02:25;;;;;;;17.60;13.65;;;;;;;24.89;50.63;98501.75;5053167;28;20028;-46
2023/08/14 03:04:51;;;;;;;39.47;33.22;;;;;;;24.94;50.62;98497.38;5035414;28;20429;-46
2023/08/14 03:07:17;;;;;;;30.20;26.27;;;;;;;25.01;50.30;98501.25;5034841;28;20029;-46
2023/08/14 03:09:42;;;;;;;34.85;30.27;;;;;;;25.03;50.28;98495.56;5052936;28;20063;-46
2023/08/14 03:12:08;;;;;;;54.15;42.08;;;;;;;25.06;50.10;98492.28;5031599;28;20107;-46
2023/08/14 03:14:34;;;;;;;36.13;28.35;;;;;;;25.08;50.07;98496.25;5032957;28;20025;-46
2023/08/14 03:16:59;;;;;;;40.92;32.25;;;;;;;25.11;49.99;98500.22;5032837;28;20530;-46
2023/08/14 03:19:25;;;;;;;32.30;23.15;;;;;;;25.06;49.87;98501.13;5032816;28;20427;-47
2023/08/14 03:21:52;;;;;;;22.15;18.42;;;;;;;25.00;49.96;98499.66;5031751;28;20029;-46
2023/08/14 03:24:17;;;;;;;40.20;30.65;;;;;;;24.98;50.29;98509.88;5032719;28;20083;-46
2023/08/14 03:26:43;;;;;;;21.70;16.58;;;;;;;24.97;50.36;98507.50;5032557;28;20029;-46
2023/08/14 03:29:09;;;;;;;52.30;43.28;;;;;;;24.96;50.42;98504.03;5014969;28;20025;-47
2023/08/14 03:31:35;;;;;;;37.40;31.23;;;;;;;25.00;50.08;98504.22;5032566;28;20034;-46
2023/08/14 03:34:00;;;;;;;39.90;34.88;;;;;;;25.02;50.05;98510.09;5032554;28;20021;-46
2023/08/14 03:36:29;;;;;;;13.20;9.88;;;;;;;25.03;49.63;98507.13;5031154;28;20053;-46
2023/08/14 03:38:55;;;;;;;33.20;29.55;;;;;;;25.06;49.58;98503.03;5032499;28;20033;-46
2023/08/14 03:41:20;;;;;;;33.17;24.52;;;;;;;25.18;49.09;98492.56;5032413;28;20507;-46
2023/08/14 03:43:47;;;;;;;34.55;27.27;;;;;;;25.31;48.78;98501.72;5031287;28;20030;-46
2023/08/14 03:46:12;;;;;;;26.40;22.38;;;;;;;25.39;48.48;98494.84;5032311;28;20037;-46
2023/08/14 03:48:38;;;;;;;29.50;26.27;;;;;;;25.40;48.17;98507.19;5030922;28;20032;-46
2023/08/14 03:51:04;;;;;;;26.42;23.20;;;;;;;25.37;48.66;98515.84;5030955;28;20033;-46
2023/08/14 03:53:30;;;;;;;28.95;22.33;;;;;;;25.39;48.35;98513.63;5032213;28;20025;-46
2023/08/14 03:55:56;;;;;;;21.40;17.40;;;;;;;25.43;48.24;98511.94;5032105;28;20418;-46
2023/08/14 03:58:22;;;;;;;22.67;14.38;;;;;;;25.49;48.09;98513.41;5032116;28;20037;-46
2023/08/14 04:00:47;;;;;;;19.35;15.38;;;;;;;25.50;47.66;98518.50;5032163;28;20072;-46
2023/08/14 04:03:14;;;;;;;45.20;40.42;;;;;;;25.49;48.41;98508.03;5032109;28;20021;-46
2023/08/14 04:05:40;;;;;;;32.95;29.67;;;;;;;25.60;47.87;98511.31;5032020;28;20044;-46
2023/08/14 04:08:09;;;;;;;39.67;35.42;;;;;;;25.64;47.78;98513.06;5032011;28;20021;-46
2023/08/14 04:10:35;;;;;;;47.35;41.28;;;;;;;25.61;47.95;98519.03;5030693;28;20513;-46
2023/08/14 04:13:00;;;;;;;77.80;69.72;;;;;;;25.60;48.16;98520.16;5043117;28;20045;-46
2023/08/14 04:15:26;;;;;;;22.92;17.70;;;;;;;25.55;48.13;98512.19;5051758;28;20021;-46
2023/08/14 04:17:52;;;;;;;24.90;17.90;;;;;;;25.53;47.97;98517.06;5051782;28;20127;-46
2023/08/14 04:20:18;;;;;;;27.77;23.27;;;;;;;25.46;47.91;98514.03;5051729;28;20048;-46
2023/08/14 04:22:43;;;;;;;29.10;22.98;;;;;;;25.44;48.02;98513.53;5033789;28;20056;-46
2023/08/14 04:25:09;;;;;;;25.30;21.95;;;;;;;25.44;48.12;98511.63;5051959;28;20018;-46
2023/08/14 04:27:36;;;;;;;43.42;38.83;;;;;;;25.48;48.17;98506.47;5033626;28;20037;-46
2023/08/14 04:30:06;;;;;;;28.13;25.15;;;;;;;25.47;47.93;98515.59;5033679;28;20120;-46
2023/08/14 04:32:32;;;;;;;23.98;21.33;;;;;;;25.44;47.84;98519.69;5033679;28;20396;-46
2023/08/14 04:34:58;;;;;;;23.45;21.00;;;;;;;25.41;48.11;98506.06;5051626;28;20394;-46
2023/08/14 04:37:23;;;;;;;27.63;24.90;;;;;;;25.37;48.23;98513.13;5033587;28;20108;-46
2023/08/14 04:39:49;;;;;;;43.15;38.58;;;;;;;25.34;48.21;98508.38;5033642;28;20038;-46
2023/08/14 04:42:15;;;;;;;20.80;17.40;;;;;;;25.39;48.04;98511.72;5051492;28;20461;-46
2023/08/14 04:44:40;;;;;;;19.08;17.17;;;;;;;25.39;47.76;98522.47;5033930;28;20206;-46
2023/08/14 04:47:06;;;;;;;16.38;14.82;;;;;;;25.30;47.85;98508.97;5033464;28;20029;-46
2023/08/14 04:49:32;;;;;;;19.27;17.40;;;;;;;25.27;48.16;98516.84;5051481;28;20020;-46
2023/08/14 04:51:58;;;;;;;17.63;15.90;;;;;;;25.19;48.71;98506.78;5033531;28;20575;-46
2023/08/14 04:54:24;;;;;;;13.75;11.70;;;;;;;25.15;48.72;98514.63;5051372;28;20087;-47
2023/08/14 04:56:50;;;;;;;12.68;10.13;;;;;;;25.11;49.12;98527.06;5033835;28;20121;-46
2023/08/14 04:59:16;;;;;;;13.18;9.88;;;;;;;25.06;49.34;98527.19;5051323;28;20112;-46
2023/08/14 05:01:41;;;;;;;14.57;12.68;;;;;;;25.05;49.64;98530.97;5051213;28;20087;-46
2023/08/14 05:04:07;;;;;;;22.65;20.23;;;;;;;25.10;49.55;98530.88;5051341;28;20017;-46
2023/08/14 05:06:33;;;;;;;14.57;13.07;;;;;;;25.19;49.49;98541.69;5051938;28;20029;-46
2023/08/14 05:08:59;;;;;;;17.13;14.02;;;;;;;25.30;49.43;98548.50;5055183;28;20112;-46
2023/08/14 05:11:24;;;;;;;18.23;11.57;;;;;;;25.86;48.13;98557.22;5055123;28;20060;-46
2023/08/14 05:13:50;;;;;;;14.07;12.68;;;;;;;26.46;46.33;98562.25;5054913;28;20064;-47
2023/08/14 05:16:16;;;;;;;17.13;14.35;;;;;;;26.94;45.66;98560.72;5037133;28;20029;-46
2023/08/14 05:18:41;;;;;;;17.35;15.55;;;;;;;27.23;44.58;98560.22;5055009;28;20036;-46
2023/08/14 05:21:07;;;;;;;11.93;7.63;;;;;;;27.01;44.77;98555.69;5054891;28;20028;-46
2023/08/14 05:23:33;;;;;;;23.70;21.23;;;;;;;26.60;46.21;98559.50;5054968;28;20402;-47
2023/08/14 05:25:58;;;;;;;20.40;16.45;;;;;;;26.46;46.40;98547.97;5036959;28;20027;-46
2023/08/14 05:28:24;;;;;;;15.30;13.90;;;;;;;26.47;46.46;98552.25;5054710;28;20025;-46
2023/08/14 05:30:50;;;;;;;12.65;8.77;;;;;;;27.01;45.43;98563.78;5054821;28;20053;-46
2023/08/14 05:33:15;;;;;;;19.02;15.05;;;;;;;27.56;44.51;98567.09;5036949;28;20083;-46
2023/08/14 05:35:41;;;;;;;11.80;9.95;;;;;;;27.72;43.56;98575.53;5036759;28;20036;-46
2023/08/14 05:38:07;;;;;;;19.50;17.67;;;;;;;27.50;44.37;98578.03;5054697;28;20527;-46
2023/08/14 05:40:33;;;;;;;11.85;9.10;;;;;;;27.26;44.83;98572.28;5054540;28;20028;-46
2023/08/14 05:43:06;;;;;;;173.02;148.05;;;;;;;27.07;45.49;98586.78;5036666;28;20564;-46
2023/08/14 05:45:36;;;;;;;255.15;213.55;;;;;;;26.99;45.92;98584.06;5054542;28;20029;-46
2023/08/14 05:48:03;;;;;;;258.85;219.32;;;;;;;27.52;44.91;98577.72;5036464;28;20072;-46
2023/08/14 05:50:30;;;;;;;263.42;214.80;;;;;;;28.17;43.32;98583.31;5054671;28;20382;-46
2023/08/14 05:52:59;;;;;;;296.42;231.07;;;;;;;28.89;42.07;98592.53;5054392;28;20564;-46
2023/08/14 05:55:26;;;;;;;288.67;226.07;;;;;;;29.48;40.33;98602.63;5054333;28;20025;-47
2023/08/14 05:57:52;;;;;;;414.33;370.30;;;;;;;29.95;39.54;98602.47;5036379;28;20041;-46
2023/08/14 06:00:18;;;;;;;385.02;346.13;;;;;;;29.68;39.73;98609.94;5054163;28;20025;-46
2023/08/14 06:02:45;;;;;;;54.75;49.33;;;;;;;29.54;40.11;98635.66;5036339;28;20029;-46
2023/08/14 06:05:11;;;;;;;35.40;31.88;;;;;;;29.87;39.37;98638.50;5054159;28;20456;-46
2023/08/14 06:07:37;;;;;;;23.92;18.45;;;;;;;29.69;39.39;98651.31;5054066;28;20542;-46
2023/08/14 06:10:06;;;;;;;39.65;35.67;;;;;;;29.85;39.57;98662.38;5053956;28;20112;-46
2023/08/14 06:12:32;;;;;;;14.70;10.55;;;;;;;30.66;37.86;98658.38;5053809;28;20548;-47
2023/08/14 06:14:59;;;;;;;12.93;9.77;;;;;;;31.06;37.28;98663.22;5036081;28;20013;-45
2023/08/14 06:17:25;;;;;;;12.82;11.57;;;;;;;31.29;36.78;98680.97;5053593;28;20029;-46
2023/08/14 06:19:51;;;;;;;12.85;8.70;;;;;;;30.77;37.27;98685.84;5052909;28;20027;-46
2023/08/14 06:22:20;;;;;;;9.43;8.52;;;;;;;30.21;38.42;98688.06;5035910;28;20041;-46
2023/08/14 06:24:46;;;;;;;12.43;5.32;;;;;;;29.92;38.95;98695.09;5053855;28;20044;-46
2023/08/14 06:27:12;;;;;;;13.85;5.38;;;;;;;29.49;39.86;98690.72;5036050;28;20029;-46
2023/08/14 06:29:37;;;;;;;12.95;10.00;;;;;;;29.08;40.51;98692.91;5053712;28;20078;-46
2023/08/14 06:32:05;;;;;;;8.30;7.18;;;;;;;28.86;41.26;98706.66;5053649;28;20074;-46
2023/08/14 06:34:30;;;;;;;7.13;5.97;;;;;;;28.68;41.66;98705.88;5053678;28;20021;-46
2023/08/14 06:36:56;;;;;;;44.65;31.73;;;;;;;28.65;41.93;98720.81;5035646;28;20375;-46
2023/08/14 06:39:22;;;;;;;11.32;8.05;;;;;;;28.71;41.54;98715.25;5035594;28;20040;-46
2023/08/14 06:41:47;;;;;;;9.88;8.98;;;;;;;28.80;41.63;98706.03;5035641;28;20071;-46
2023/08/14 06:44:13;;;;;;;27.45;24.40;;;;;;;28.80;41.58;98708.72;5053413;28;20052;-46
2023/08/14 06:46:39;;;;;;;70.20;63.28;;;;;;;28.77;41.57;98717.44;5035539;28;20063;-46
2023/08/14 06:49:05;;;;;;;28.98;26.27;;;;;;;28.69;41.69;98715.56;5053319;28;20490;-46
2023/08/14 06:51:34;;;;;;;27.13;24.33;;;;;;;28.59;42.38;98726.69;5035341;28;20086;-46
2023/08/14 06:54:00;;;;;;;83.88;75.97;;;;;;;28.55;42.29;98720.34;5018899;28;20032;-46
2023/08/14 06:56:28;;;;;;;68.22;61.85;;;;;;;28.57;42.23;98718.91;5035622;28;20460;-46
2023/08/14 06:58:54;;;;;;;113.88;102.93;;;;;;;28.70;42.09;98714.47;5053283;28;20380;-46
2023/08/14 07:01:20;;;;;;;72.03;65.20;;;;;;;28.82;42.03;98717.31;5035225;28;20021;-46
2023/08/14 07:03:45;;;;;;;100.38;90.78;;;;;;;28.88;41.81;98726.03;5053069;28;20486;-46
2023/08/14 07:06:13;;;;;;;105.55;96.47;;;;;;;28.92;41.70;98721.56;5052984;28;20016;-46
2023/08/14 07:08:39;;;;;;;133.57;120.97;;;;;;;29.06;41.69;98718.69;5053190;28;20037;-46
2023/08/14 07:11:05;;;;;;;139.63;125.85;;;;;;;29.36;40.95;98716.88;5052835;28;20027;-46
2023/08/14 07:13:31;;;;;;;122.28;110.55;;;;;;;29.73;40.42;98713.72;5034787;28;20037;-46
2023/08/14 07:15:57;;;;;;;111.55;101.57;;;;;;;30.09;39.55;98705.03;5035153;28;20033;-46
2023/08/14 07:18:22;;;;;;;95.53;86.80;;;;;;;30.51;38.70;98699.63;5034838;28;20033;-46
2023/08/14 07:20:48;;;;;;;91.65;82.63;;;;;;;31.50;37.25;98692.53;5052637;28;20029;-46
2023/08/14 07:23:18;;;;;;;10.90;7.60;;;;;;;32.68;35.15;98691.72;5034744;28;20426;-46
2023/08/14 07:25:44;;;;;;;101.22;91.57;;;;;;;33.20;33.89;98702.44;5034751;28;20056;-46
2023/08/14 07:28:10;;;;;;;91.00;82.60;;;;;;;33.13;34.08;98693.31;5052484;28;20491;-46
2023/08/14 07:30:38;;;;;;;77.68;70.50;;;;;;;33.52;33.36;98688.03;5052112;28;20032;-46
2023/08/14 07:33:04;;;;;;;38.28;33.80;;;;;;;33.49;33.23;98684.09;5034620;28;20490;-46
2023/08/14 07:35:31;;;;;;;63.95;57.50;;;;;;;32.51;34.70;98695.53;5052452;28;20036;-46
2023/08/14 07:37:57;;;;;;;55.22;49.83;;;;;;;31.87;35.71;98697.16;5052424;28;20025;-46
2023/08/14 07:40:24;;;;;;;20.40;16.67;;;;;;;31.28;37.34;98692.97;5035010;28;20458;-46
2023/08/14 07:42:50;;;;;;;71.80;64.50;;;;;;;31.01;38.12;98679.72;5052431;28;20025;-46
2023/08/14 07:45:16;;;;;;;63.90;57.60;;;;;;;31.15;37.62;98684.81;5052200;28;20083;-46
2023/08/14 07:47:42;;;;;;;80.18;72.25;;;;;;;31.01;38.14;98695.19;5052469;28;20427;-46
2023/08/14 07:50:08;;;;;;;46.70;41.92;;;;;;;31.23;38.25;98702.91;5052469;28;20119;-46
2023/08/14 07:52:34;;;;;;;95.38;85.82;;;;;;;31.48;37.66;98702.94;5034273;28;20028;-46
2023/08/14 07:55:01;;;;;;;100.28;91.03;;;;;;;31.73;36.46;98703.72;5052111;28;20025;-46
2023/08/14 07:57:30;;;;;;;93.57;85.20;;;;;;;31.70;36.04;98703.63;5052122;28;20025;-46
2023/08/14 07:59:56;;;;;;;89.00;80.85;;;;;;;31.87;35.92;98706.06;5034146;28;20494;-46
2023/08/14 08:02:22;;;;;;;117.72;105.97;;;;;;;31.54;35.63;98714.38;5034087;28;20056;-46
2023/08/14 08:04:48;;;;;;;91.70;82.45;;;;;;;31.22;36.13;98712.16;5051993;28;20059;-46
2023/08/14 08:07:14;;;;;;;92.95;84.07;;;;;;;30.88;37.00;98716.03;5052089;28;20060;-46
2023/08/14 08:09:39;;;;;;;120.45;108.82;;;;;;;30.71;37.35;98711.56;5051858;28;20029;-46
2023/08/14 08:12:06;;;;;;;127.68;115.30;;;;;;;30.81;37.36;98711.16;5051282;28;20094;-46
2023/08/14 08:14:35;;;;;;;34.45;30.77;;;;;;;31.04;36.55;98702.66;5051519;28;20052;-46
2023/08/14 08:17:04;;;;;;;15.77;12.82;;;;;;;31.25;36.64;98700.66;5051799;28;20041;-46
2023/08/14 08:19:30;;;;;;;92.43;82.43;;;;;;;31.35;36.41;98695.91;5033896;28;20495;-46
2023/08/14 08:21:55;;;;;;;107.95;97.07;;;;;;;31.63;35.62;98693.31;5033797;28;20028;-46
2023/08/14 08:24:21;;;;;;;26.45;23.80;;;;;;;31.90;35.00;98691.03;5051747;28;20115;-46
2023/08/14 08:26:48;;;;;;;106.90;96.10;;;;;;;32.18;35.22;98693.84;5051660;28;20522;-46
2023/08/14 08:29:14;;;;;;;25.05;22.25;;;;;;;32.36;34.77;98702.50;5051784;28;20483;-46
2023/08/14 08:31:40;;;;;;;73.57;65.72;;;;;;;32.42;33.83;98685.59;5051545;28;20032;-46
2023/08/14 08:34:05;;;;;;;15.50;12.63;;;;;;;32.45;33.32;98684.88;5051856;28;20032;-46
2023/08/14 08:36:31;;;;;;;26.58;18.75;;;;;;;32.52;32.48;98684.31;5051563;28;20032;-46
2023/08/14 08:38:57;;;;;;;25.23;18.23;;;;;;;32.60;32.75;98682.63;5051458;28;20024;-46
2023/08/14 08:41:31;;;;;;;15.48;12.38;;;;;;;32.63;31.79;98690.84;5051917;28;20044;-46
2023/08/14 08:44:09;;;;;;;20.40;13.00;;;;;;;32.80;31.55;98669.91;5055680;28;20089;-47
2023/08/14 08:46:50;;;;;;;13.38;11.18;;;;;;;32.93;31.10;98682.31;5037644;28;20044;-46
2023/08/14 08:49:16;;;;;;;13.05;8.15;;;;;;;32.98;30.58;98683.97;5055492;28;20033;-45
2023/08/14 08:51:44;;;;;;;639.90;575.22;;;;;;;33.24;30.86;98686.19;5055553;28;20110;-46
2023/08/14 08:54:12;;;;;;;684.60;614.50;;;;;;;33.46;30.78;98687.50;5055515;28;20052;-46
2023/08/14 08:56:37;;;;;;;533.40;478.55;;;;;;;33.67;30.25;98686.47;5055453;28;20579;-47
2023/08/14 08:59:04;;;;;;;900.35;780.30;;;;;;;33.81;30.21;98692.22;5037433;28;20112;-46
2023/08/14 09:01:30;;;;;;;605.08;530.10;;;;;;;33.81;30.47;98686.78;5055360;28;20553;-46
2023/08/14 09:03:56;;;;;;;121.50;103.45;;;;;;;34.02;30.27;98670.88;5055327;28;20017;-47
2023/08/14 09:06:22;;;;;;;81.00;71.88;;;;;;;34.27;29.75;98672.56;5037346;28;20029;-46
2023/08/14 09:08:47;;;;;;;92.13;80.07;;;;;;;34.44;29.66;98663.16;5055096;28;20112;-46
2023/08/14 09:11:13;;;;;;;67.35;50.72;;;;;;;35.04;29.28;98647.13;5055178;28;20102;-46
2023/08/14 09:13:39;;;;;;;77.13;57.75;;;;;;;35.57;28.57;98635.47;5037057;28;20044;-46
2023/08/14 09:16:08;;;;;;;36.97;22.60;;;;;;;35.69;27.82;98635.25;5037089;28;20563;-46
2023/08/14 09:18:34;;;;;;;29.02;24.13;;;;;;;35.44;28.21;98629.44;5055101;28;20060;-46
2023/08/14 09:21:01;;;;;;;26.13;19.42;;;;;;;35.24;28.33;98628.75;5055004;28;20534;-47
2023/08/14 09:23:30;;;;;;;34.50;24.55;;;;;;;34.84;28.83;98610.94;5020587;28;20119;-46
2023/08/14 09:25:56;;;;;;;18.35;10.55;;;;;;;34.74;29.04;98603.38;5054867;28;20022;-47
2023/08/14 09:28:22;;;;;;;20.52;14.40;;;;;;;34.43;29.26;98599.72;5036779;28;20033;-46
2023/08/14 09:30:47;;;;;;;71.43;63.92;;;;;;;34.31;29.50;98576.16;5054861;28;20025;-46
2023/08/14 09:33:13;;;;;;;28.45;22.63;;;;;;;34.51;29.64;98567.91;5036858;28;20127;-47
2023/08/14 09:35:39;;;;;;;22.02;17.27;;;;;;;34.53;29.47;98568.31;5054735;28;20021;-46
2023/08/14 09:38:05;;;;;;;19.35;10.20;;;;;;;34.11;30.22;98564.47;5054798;28;20057;-47
2023/08/14 09:40:32;;;;;;;30.95;22.05;;;;;;;33.87;30.45;98551.94;5054615;28;20074;-46
2023/08/14 09:42:58;;;;;;;15.63;10.43;;;;;;;33.84;30.07;98547.19;5054574;28;20426;-46
2023/08/14 09:45:27;;;;;;;8.25;6.65;;;;;;;33.74;29.29;98536.88;5054550;28;20017;-46
2023/08/14 09:48:00;;;;;;;12.98;8.10;;;;;;;33.69;29.87;98545.34;5054389;28;20028;-46
2023/08/14 09:50:29;;;;;;;15.13;8.77;;;;;;;33.86;30.00;98519.63;5054496;28;20057;-46
2023/08/14 09:52:59;;;;;;;8.57;4.53;;;;;;;34.32;28.25;98517.75;5054316;28;20017;-47
2023/08/14 09:55:27;;;;;;;10.25;6.05;;;;;;;34.59;28.27;98502.25;5054586;28;20036;-46
2023/08/14 09:57:54;;;;;;;8.63;4.57;;;;;;;34.85;27.84;98500.72;5054302;28;20509;-46
2023/08/14 10:00:20;;;;;;;9.35;3.63;;;;;;;35.59;26.96;98485.72;5054234;28;20021;-47
2023/08/14 10:02:47;;;;;;;11.45;5.50;;;;;;;36.39;26.04;98505.31;5036358;28;20033;-47
2023/08/14 10:05:16;;;;;;;9.35;5.43;;;;;;;37.38;25.23;98502.88;5054381;28;20395;-47
2023/08/14 10:07:43;;;;;;;10.45;6.10;;;;;;;37.33;24.49;98512.25;5054073;28;20040;-46
2023/08/14 10:10:11;;;;;;;15.00;4.13;;;;;;;36.92;25.17;98509.63;5054135;28;20036;-47
2023/08/14 10:12:59;;;;;;;7.07;3.58;;;;;;;36.51;25.74;98512.44;5053835;28;20033;-47
2023/08/14 10:15:32;;;;;;;11.32;3.78;;;;;;;36.07;26.15;98509.69;5054063;28;20033;-46
2023/08/14 10:18:01;;;;;;;11.10;5.50;;;;;;;35.73;26.25;98517.91;5054035;28;20483;-46
2023/08/14 10:20:34;;;;;;;19.80;8.05;;;;;;;35.43;26.96;98515.19;5053776;28;20040;-46
2023/08/14 10:23:01;;;;;;;10.25;3.15;;;;;;;35.41;27.12;98531.91;5053836;28;20510;-46
2023/08/14 10:25:28;;;;;;;11.27;3.10;;;;;;;35.71;26.77;98531.91;5053782;28;20052;-46
2023/08/14 10:27:54;;;;;;;11.02;4.20;;;;;;;36.26;26.99;98531.38;5053658;28;20021;-47
2023/08/14 10:30:25;;;;;;;12.60;6.22;;;;;;;36.51;26.06;98528.06;5035832;28;20036;-46
2023/08/14 10:32:52;;;;;;;7.82;5.40;;;;;;;36.48;25.83;98535.06;5053758;28;20044;-46
2023/08/14 10:35:20;;;;;;;10.90;6.75;;;;;;;36.14;26.10;98529.66;5035782;28;20021;-46
2023/08/14 10:37:47;;;;;;;19.10;5.28;;;;;;;35.70;26.73;98532.28;5035614;28;20033;-46
2023/08/14 10:40:24;;;;;;;6.82;4.07;;;;;;;35.17;27.68;98533.94;5035584;28;20029;-46
2023/08/14 10:42:55;;;;;;;8.52;4.93;;;;;;;34.81;28.66;98533.41;5053407;28;20028;-46
2023/08/14 10:45:23;;;;;;;9.27;6.10;;;;;;;34.52;28.97;98545.75;5035476;28;20021;-46
2023/08/14 10:47:50;;;;;;;11.15;5.03;;;;;;;34.35;29.48;98533.41;5018931;28;20035;-46
2023/08/14 10:50:27;;;;;;;12.18;4.40;;;;;;;34.16;29.72;98539.66;5053324;28;20032;-46
2023/08/14 10:52:55;;;;;;;9.25;3.58;;;;;;;34.19;29.73;98543.63;5053316;28;20083;-47
2023/08/14 10:55:26;;;;;;;8.10;4.28;;;;;;;34.11;29.68;98544.59;5053185;28;20035;-47
2023/08/14 10:57:54;;;;;;;11.38;5.53;;;;;;;34.10;30.00;98540.28;5035305;28;20025;-46
2023/08/14 11:00:22;;;;;;;19.23;7.78;;;;;;;34.35;30.13;98541.56;5053354;28;20036;-46
2023/08/14 11:03:07;;;;;;;10.23;4.43;;;;;;;34.90;29.53;98537.81;5053040;28;20021;-47
2023/08/14 11:05:38;;;;;;;10.00;3.60;;;;;;;35.44;28.64;98528.47;5034424;28;20039;-46
2023/08/14 11:08:11;;;;;;;8.05;3.70;;;;;;;35.78;28.22;98529.28;5034976;28;20021;-46
2023/08/14 11:10:37;;;;;;;13.50;5.97;;;;;;;36.16;27.48;98534.75;5052976;28;20037;-46
2023/08/14 11:13:11;;;;;;;7.70;6.65;;;;;;;36.37;27.25;98518.56;5052659;28;20716;-46
2023/08/14 11:15:37;;;;;;;;;;;;;;;36.37;27.73;98524.03;5053293;28;20112;-46
2023/08/14 11:18:10;;;;;;;5.57;2.75;;;;;;;36.35;27.57;98525.59;5053101;28;20348;-46
2023/08/14 11:20:37;;;;;;;8.05;2.65;;;;;;;36.08;27.33;98503.03;5052880;28;20493;-46